Time;durP1;ratioP1;P1;durP2;ratioP2;P2;SDS_P1;SDS_P2;PMS_P1;PMS_P2;Temp;Humidity;BMP_temperature;BMP_pressure;BME280_temperature;BME280_humidity;BME280_pressure;Samples;Min_cycle;Max_cycle;Signal;HPM_P1;HPM_P2
2023/10/27 00:01:55;;;;;;;2.57;2.13;;;9.10;99.90;;;;;;5045159;28;20237;-84
2023/10/27 00:04:22;;;;;;;2.47;2.00;;;9.10;99.90;;;;;;5047565;28;20222;-85
2023/10/27 00:06:48;;;;;;;5.60;2.17;;;9.10;99.90;;;;;;5046089;28;20246;-85
2023/10/27 00:09:15;;;;;;;2.57;1.97;;;9.20;99.90;;;;;;5041782;28;20226;-84
2023/10/27 00:11:42;;;;;;;1.97;1.60;;;9.10;99.90;;;;;;5045156;28;20668;-85
2023/10/27 00:14:08;;;;;;;2.17;1.87;;;9.10;99.90;;;;;;5042631;28;20313;-84
2023/10/27 00:16:35;;;;;;;2.30;2.10;;;9.10;99.90;;;;;;5047964;28;20312;-85
2023/10/27 00:19:03;;;;;;;4.13;2.03;;;9.10;99.90;;;;;;5047754;28;20250;-86
2023/10/27 00:21:30;;;;;;;2.23;2.03;;;9.10;99.90;;;;;;5043366;28;20219;-85
2023/10/27 00:23:57;;;;;;;2.30;2.10;;;9.10;99.90;;;;;;5048672;28;20250;-85
2023/10/27 00:26:24;;;;;;;2.00;1.87;;;9.10;99.90;;;;;;5041844;28;20235;-85
2023/10/27 00:28:52;;;;;;;2.33;2.00;;;9.10;99.90;;;;;;5050213;28;20223;-85
2023/10/27 00:31:18;;;;;;;3.00;2.10;;;9.10;99.90;;;;;;5048981;28;20227;-86
2023/10/27 00:33:46;;;;;;;2.60;2.00;;;9.10;99.90;;;;;;5078973;28;20229;-85
2023/10/27 00:36:15;;;;;;;2.50;2.17;;;9.10;99.90;;;;;;5042889;28;20238;-85
2023/10/27 00:38:41;;;;;;;2.73;1.93;;;9.10;99.90;;;;;;5044892;28;20225;-85
2023/10/27 00:41:08;;;;;;;2.40;2.07;;;9.10;99.90;;;;;;5042595;28;20220;-85
2023/10/27 00:43:35;;;;;;;3.13;2.20;;;9.10;99.90;;;;;;5063666;28;20237;-85
2023/10/27 00:46:02;;;;;;;2.70;2.07;;;9.10;99.90;;;;;;5044225;28;20270;-85
2023/10/27 00:48:29;;;;;;;3.50;1.93;;;9.10;99.90;;;;;;5046932;28;20279;-85
2023/10/27 00:50:57;;;;;;;3.50;2.00;;;9.10;99.90;;;;;;5043584;28;20246;-83
2023/10/27 00:53:27;;;;;;;3.10;2.13;;;9.10;99.90;;;;;;5037086;28;20317;-83
2023/10/27 00:55:55;;;;;;;3.23;2.20;;;9.10;99.90;;;;;;5040842;28;20231;-85
2023/10/27 00:58:23;;;;;;;2.63;1.93;;;9.10;99.90;;;;;;5039612;28;20215;-84
2023/10/27 01:00:55;;;;;;;1.87;1.70;;;9.10;99.90;;;;;;5038541;28;20226;-85
2023/10/27 01:03:22;;;;;;;3.70;2.20;;;9.10;99.90;;;;;;5059948;28;20233;-85
2023/10/27 01:05:52;;;;;;;3.50;2.00;;;9.10;99.90;;;;;;5040958;28;20232;-84
2023/10/27 01:08:19;;;;;;;2.80;2.00;;;9.10;99.90;;;;;;5046709;28;20226;-84
2023/10/27 01:10:48;;;;;;;2.13;1.83;;;9.10;99.90;;;;;;5055672;28;20231;-84
2023/10/27 01:13:15;;;;;;;2.10;1.43;;;9.20;99.90;;;;;;5058012;28;20839;-84
2023/10/27 01:15:42;;;;;;;4.13;1.67;;;9.20;99.90;;;;;;5038170;28;20648;-84
2023/10/27 01:18:08;;;;;;;1.77;1.47;;;9.20;99.90;;;;;;5036456;28;20226;-84
2023/10/27 01:20:35;;;;;;;1.73;1.63;;;9.20;99.90;;;;;;5041932;28;20281;-83
2023/10/27 01:23:04;;;;;;;2.37;1.53;;;9.20;99.90;;;;;;5040068;28;20230;-84
2023/10/27 01:25:31;;;;;;;1.40;1.30;;;9.20;99.90;;;;;;5038567;28;20835;-84
2023/10/27 01:27:58;;;;;;;2.10;1.47;;;9.20;99.90;;;;;;5070908;28;20231;-84
2023/10/27 01:30:25;;;;;;;1.70;1.50;;;9.10;99.90;;;;;;5037787;28;20234;-85
2023/10/27 01:32:52;;;;;;;2.43;1.53;;;9.10;99.90;;;;;;5036853;28;20243;-84
2023/10/27 01:35:19;;;;;;;2.57;1.50;;;9.10;99.90;;;;;;5059269;28;20226;-84
2023/10/27 01:37:46;;;;;;;2.73;1.30;;;9.10;99.90;;;;;;5036974;28;20215;-85
2023/10/27 01:40:15;;;;;;;2.00;1.30;;;9.10;99.90;;;;;;5044293;28;20228;-84
2023/10/27 01:42:42;;;;;;;2.03;1.60;;;9.00;99.90;;;;;;5042997;28;20219;-84
2023/10/27 01:45:09;;;;;;;2.07;1.40;;;9.00;99.90;;;;;;5027072;28;20226;-84
2023/10/27 01:47:37;;;;;;;2.43;1.40;;;9.00;99.90;;;;;;5041781;28;20231;-84
2023/10/27 01:50:04;;;;;;;3.40;1.80;;;9.00;99.90;;;;;;5035990;28;20637;-85
2023/10/27 01:52:31;;;;;;;1.97;1.40;;;9.00;99.90;;;;;;5035188;28;20271;-84
2023/10/27 01:54:59;;;;;;;4.10;1.70;;;9.00;99.90;;;;;;5054247;28;20603;-85
2023/10/27 01:57:27;;;;;;;2.70;1.53;;;9.00;99.90;;;;;;5033848;28;20232;-85
2023/10/27 01:59:54;;;;;;;3.30;1.40;;;9.00;99.90;;;;;;5054364;28;20226;-85
2023/10/27 02:02:21;;;;;;;4.80;1.40;;;9.00;99.90;;;;;;5037793;28;20834;-85
2023/10/27 02:04:49;;;;;;;2.50;1.50;;;9.00;99.90;;;;;;5040683;28;20700;-86
2023/10/27 02:07:16;;;;;;;2.23;1.73;;;9.00;99.90;;;;;;5039972;28;20309;-86
2023/10/27 02:09:46;;;;;;;3.20;1.60;;;9.00;99.90;;;;;;5042212;28;20305;-86
2023/10/27 02:12:13;;;;;;;2.60;1.50;;;9.00;99.90;;;;;;5041914;28;20242;-85
2023/10/27 02:14:42;;;;;;;6.67;1.90;;;9.00;99.90;;;;;;5047248;28;20254;-86
2023/10/27 02:17:11;;;;;;;4.20;2.20;;;9.00;99.90;;;;;;5046088;28;20218;-85
2023/10/27 02:19:38;;;;;;;3.30;1.30;;;9.00;99.90;;;;;;5048313;28;20451;-86
2023/10/27 02:22:04;;;;;;;4.33;1.80;;;9.00;99.90;;;;;;5046986;28;20219;-84
2023/10/27 02:24:31;;;;;;;1.80;1.40;;;9.00;99.90;;;;;;5042690;28;20323;-85
2023/10/27 02:26:58;;;;;;;3.27;1.60;;;9.00;99.90;;;;;;5046920;28;20254;-84
2023/10/27 02:29:26;;;;;;;2.47;1.40;;;8.90;99.90;;;;;;5068611;28;20232;-85
2023/10/27 02:31:54;;;;;;;1.53;1.20;;;8.90;99.90;;;;;;5049532;28;20273;-85
2023/10/27 02:34:21;;;;;;;2.17;1.43;;;8.90;99.90;;;;;;5056655;28;20234;-85
2023/10/27 02:36:48;;;;;;;3.63;1.60;;;8.90;99.90;;;;;;5048997;28;20739;-85
2023/10/27 02:39:15;;;;;;;1.80;1.40;;;8.90;99.90;;;;;;5082366;28;20287;-84
2023/10/27 02:41:42;;;;;;;2.13;1.30;;;8.90;99.90;;;;;;5065791;28;20702;-85
2023/10/27 02:44:09;;;;;;;1.83;1.40;;;8.90;99.90;;;;;;5057295;28;20751;-85
2023/10/27 02:46:37;;;;;;;2.63;1.50;;;8.90;99.90;;;;;;5060041;28;20238;-85
2023/10/27 02:49:06;;;;;;;2.60;1.47;;;8.90;99.90;;;;;;5066614;28;20230;-85
2023/10/27 02:51:33;;;;;;;2.63;1.30;;;8.90;99.90;;;;;;5048514;28;20227;-85
2023/10/27 02:54:03;;;;;;;2.27;1.10;;;8.90;99.90;;;;;;5051876;28;20223;-85
2023/10/27 02:56:30;;;;;;;3.47;1.60;;;8.90;99.90;;;;;;5049070;28;20246;-86
2023/10/27 02:58:57;;;;;;;2.87;1.40;;;8.90;99.90;;;;;;5044973;28;20626;-86
2023/10/27 03:01:24;;;;;;;2.37;1.80;;;8.90;99.90;;;;;;5038676;28;20270;-86
2023/10/27 03:03:51;;;;;;;2.23;1.50;;;8.90;99.90;;;;;;5057743;28;20234;-86
2023/10/27 03:06:20;;;;;;;5.20;1.90;;;8.90;99.90;;;;;;5047223;28;20836;-86
2023/10/27 03:08:47;;;;;;;2.23;1.40;;;8.90;99.90;;;;;;5077458;28;20299;-85
2023/10/27 03:11:14;;;;;;;2.17;1.57;;;8.80;99.90;;;;;;5048124;28;20241;-86
2023/10/27 03:13:40;;;;;;;3.07;1.60;;;8.80;99.90;;;;;;5082122;28;20892;-85
2023/10/27 03:16:07;;;;;;;2.27;1.90;;;8.80;99.90;;;;;;5045889;28;20962;-86
2023/10/27 03:18:34;;;;;;;2.00;1.57;;;8.80;99.90;;;;;;5083158;28;20602;-87
2023/10/27 03:21:05;;;;;;;2.60;1.70;;;8.80;99.90;;;;;;5048782;28;20311;-86
2023/10/27 03:23:33;;;;;;;1.97;1.70;;;8.80;99.90;;;;;;5057730;28;20235;-86
2023/10/27 03:26:00;;;;;;;4.83;1.93;;;8.80;99.90;;;;;;5068426;28;20258;-86
2023/10/27 03:28:27;;;;;;;2.33;1.80;;;8.80;99.90;;;;;;5059400;28;20267;-85
2023/10/27 03:30:54;;;;;;;3.77;1.80;;;8.80;99.90;;;;;;5049510;28;20273;-86
2023/10/27 03:33:21;;;;;;;4.47;2.20;;;8.80;99.90;;;;;;5064873;28;20938;-85
2023/10/27 03:35:48;;;;;;;4.60;1.90;;;8.70;99.90;;;;;;5048381;28;20296;-86
2023/10/27 03:38:17;;;;;;;3.13;1.87;;;8.80;99.90;;;;;;5049127;28;20248;-87
2023/10/27 03:40:48;;;;;;;3.03;2.03;;;8.70;99.90;;;;;;5047429;28;20311;-87
2023/10/27 03:43:15;;;;;;;5.13;2.33;;;8.70;99.90;;;;;;5047261;28;20785;-85
2023/10/27 03:45:42;;;;;;;4.00;2.53;;;8.70;99.90;;;;;;5048900;28;20223;-86
2023/10/27 03:48:09;;;;;;;4.00;2.13;;;8.70;99.90;;;;;;5048709;28;20231;-85
2023/10/27 03:50:37;;;;;;;4.00;2.23;;;8.70;99.90;;;;;;5039476;28;20716;-86
2023/10/27 03:53:04;;;;;;;4.03;2.23;;;8.60;99.90;;;;;;5048373;28;20253;-87
2023/10/27 03:55:31;;;;;;;4.90;2.27;;;8.60;99.90;;;;;;5045648;28;20234;-85
2023/10/27 03:58:15;;;;;;;2.80;2.10;;;8.60;99.90;;;;;;5048741;28;20391;-86
2023/10/27 04:00:43;;;;;;;2.33;2.00;;;8.60;99.90;;;;;;5047856;28;20976;-86
2023/10/27 04:03:10;;;;;;;2.43;2.03;;;8.60;99.90;;;;;;5048653;28;20269;-86
2023/10/27 04:05:37;;;;;;;4.13;2.30;;;8.60;99.90;;;;;;5046054;28;20221;-86
2023/10/27 04:08:05;;;;;;;5.10;2.30;;;8.60;99.90;;;;;;5039153;28;20229;-86
2023/10/27 04:10:32;;;;;;;3.27;2.13;;;8.60;99.90;;;;;;5040438;28;20310;-85
2023/10/27 04:13:00;;;;;;;3.40;2.10;;;8.60;99.90;;;;;;5043701;28;20249;-85
2023/10/27 04:15:28;;;;;;;2.20;1.87;;;8.60;99.90;;;;;;5057145;28;20248;-85
2023/10/27 04:17:55;;;;;;;4.57;2.20;;;8.50;99.90;;;;;;5039318;28;20226;-85
2023/10/27 04:20:22;;;;;;;8.70;2.27;;;8.50;99.90;;;;;;5039020;28;20267;-85
2023/10/27 04:22:49;;;;;;;3.13;1.80;;;8.50;99.90;;;;;;5038463;28;20223;-84
2023/10/27 04:25:16;;;;;;;2.43;1.83;;;8.50;99.90;;;;;;5037453;28;20227;-85
2023/10/27 04:27:43;;;;;;;5.07;1.77;;;8.50;99.90;;;;;;5038783;28;20225;-85
2023/10/27 04:30:11;;;;;;;3.27;1.80;;;8.50;99.90;;;;;;5027785;28;20301;-86
2023/10/27 04:32:40;;;;;;;2.30;1.33;;;8.50;99.90;;;;;;5049645;28;20230;-86
2023/10/27 04:35:07;;;;;;;2.73;1.50;;;8.50;99.90;;;;;;5058894;28;20271;-86
2023/10/27 04:37:34;;;;;;;1.67;1.10;;;8.50;99.90;;;;;;5054854;28;20891;-85
2023/10/27 04:40:01;;;;;;;2.47;1.40;;;8.50;99.90;;;;;;5040686;28;20226;-87
2023/10/27 04:42:28;;;;;;;5.00;1.43;;;8.50;99.90;;;;;;5027919;28;20638;-84
2023/10/27 04:44:55;;;;;;;1.73;1.00;;;8.50;99.90;;;;;;5034312;28;20223;-86
2023/10/27 04:47:22;;;;;;;1.87;1.37;;;8.60;99.90;;;;;;5031237;28;20297;-86
2023/10/27 04:49:52;;;;;;;1.77;1.50;;;8.60;99.90;;;;;;5035714;28;20769;-86
2023/10/27 04:52:20;;;;;;;1.30;1.20;;;8.60;99.90;;;;;;5061629;28;20228;-85
2023/10/27 04:54:47;;;;;;;1.30;1.10;;;8.60;99.90;;;;;;5055168;28;20354;-85
2023/10/27 04:57:14;;;;;;;2.90;1.47;;;8.60;99.90;;;;;;5055903;28;20237;-86
2023/10/27 04:59:41;;;;;;;4.47;1.70;;;8.60;99.90;;;;;;5037512;28;20293;-85
2023/10/27 05:02:08;;;;;;;2.60;1.17;;;8.60;99.90;;;;;;5032314;28;20226;-86
2023/10/27 05:04:35;;;;;;;1.90;1.30;;;8.60;99.90;;;;;;5052802;28;20227;-85
2023/10/27 05:07:05;;;;;;;1.43;1.30;;;8.70;99.90;;;;;;5036993;28;20308;-84
2023/10/27 05:09:33;;;;;;;1.80;1.40;;;8.60;99.90;;;;;;5053007;28;20740;-85
2023/10/27 05:12:00;;;;;;;1.53;1.40;;;8.60;99.90;;;;;;5050968;28;21129;-83
2023/10/27 05:14:27;;;;;;;3.00;1.67;;;8.60;99.90;;;;;;5045708;28;20250;-86
2023/10/27 05:16:54;;;;;;;4.13;1.90;;;8.60;99.90;;;;;;5072513;28;20229;-85
2023/10/27 05:19:21;;;;;;;1.90;1.50;;;8.60;99.90;;;;;;5037127;28;20228;-86
2023/10/27 05:21:49;;;;;;;2.40;1.77;;;8.60;99.90;;;;;;5053310;28;20226;-86
2023/10/27 05:24:17;;;;;;;2.93;1.83;;;8.60;99.90;;;;;;5052396;28;20225;-86
2023/10/27 05:26:44;;;;;;;2.63;1.80;;;8.60;99.90;;;;;;5042140;28;20320;-86
2023/10/27 05:29:11;;;;;;;3.73;1.83;;;8.60;99.90;;;;;;5036886;28;20229;-87
2023/10/27 05:31:41;;;;;;;2.93;1.80;;;8.60;99.90;;;;;;5055080;28;20258;-86
2023/10/27 05:34:08;;;;;;;2.57;1.80;;;8.60;99.90;;;;;;5041781;28;20284;-87
2023/10/27 05:36:35;;;;;;;2.30;1.50;;;8.60;99.90;;;;;;5060840;28;20236;-86
2023/10/27 05:39:02;;;;;;;3.33;2.00;;;8.60;99.90;;;;;;5039646;28;20243;-86
2023/10/27 05:41:31;;;;;;;3.70;1.90;;;8.60;99.90;;;;;;5039656;28;20227;-86
2023/10/27 05:43:57;;;;;;;3.87;2.40;;;8.60;99.90;;;;;;5041495;28;20297;-86
2023/10/27 05:46:24;;;;;;;2.53;1.80;;;8.60;99.90;;;;;;5040953;28;20232;-87
2023/10/27 05:48:51;;;;;;;3.23;1.87;;;8.50;99.90;;;;;;5039882;28;20660;-86
2023/10/27 05:51:20;;;;;;;2.57;1.83;;;8.50;99.90;;;;;;5058186;28;20775;-87
2023/10/27 05:53:51;;;;;;;2.30;1.80;;;8.50;99.90;;;;;;5041824;28;20744;-87
2023/10/27 05:56:26;;;;;;;3.00;2.10;;;8.50;99.90;;;;;;5042463;28;20235;-86
2023/10/27 05:58:58;;;;;;;3.10;2.00;;;8.50;99.90;;;;;;5075754;28;20223;-87
2023/10/27 06:01:30;;;;;;;3.13;2.20;;;8.50;99.90;;;;;;5035280;28;21113;-86
2023/10/27 06:03:59;;;;;;;3.00;2.07;;;8.50;99.90;;;;;;5025781;28;20231;-86
2023/10/27 06:06:29;;;;;;;2.57;2.00;;;8.50;99.90;;;;;;5050031;28;20315;-86
2023/10/27 06:08:57;;;;;;;3.77;2.50;;;8.50;99.90;;;;;;5040184;28;20231;-86
2023/10/27 06:11:25;;;;;;;3.83;2.27;;;8.50;99.90;;;;;;5042692;28;20659;-86
2023/10/27 06:13:51;;;;;;;3.37;2.10;;;8.50;99.90;;;;;;5042425;28;20269;-87
2023/10/27 06:16:20;;;;;;;3.70;2.07;;;8.50;99.90;;;;;;5065076;28;20229;-86
2023/10/27 06:18:46;;;;;;;4.53;2.43;;;8.50;99.90;;;;;;5042208;28;20223;-86
2023/10/27 06:21:14;;;;;;;3.07;2.43;;;8.50;99.90;;;;;;5036947;28;20405;-87
2023/10/27 06:23:40;;;;;;;3.03;2.10;;;8.50;99.90;;;;;;5027532;28;21726;-87
2023/10/27 06:26:07;;;;;;;4.17;2.27;;;8.50;99.90;;;;;;5048944;28;20218;-87
2023/10/27 06:28:34;;;;;;;3.97;2.57;;;8.50;99.90;;;;;;5047326;28;20649;-86
2023/10/27 06:31:02;;;;;;;4.63;2.90;;;8.50;99.90;;;;;;5052634;28;20221;-86
2023/10/27 06:33:32;;;;;;;3.67;2.50;;;8.50;99.90;;;;;;5040936;28;20712;-86
2023/10/27 06:35:59;;;;;;;4.90;2.27;;;8.50;99.90;;;;;;5042043;28;20857;-87
2023/10/27 06:38:26;;;;;;;3.23;2.33;;;8.50;99.90;;;;;;5046054;28;20689;-87
2023/10/27 06:40:52;;;;;;;3.63;2.33;;;8.50;99.90;;;;;;5045671;28;20329;-87
2023/10/27 06:43:19;;;;;;;2.57;2.27;;;8.50;99.90;;;;;;5047384;28;20231;-86
2023/10/27 06:45:46;;;;;;;3.57;2.43;;;8.50;99.90;;;;;;5049727;28;20229;-86
2023/10/27 06:48:13;;;;;;;3.70;2.40;;;8.50;99.90;;;;;;5047522;28;20319;-87
2023/10/27 06:50:41;;;;;;;3.83;2.67;;;8.50;99.90;;;;;;5039334;28;20222;-87
2023/10/27 06:53:08;;;;;;;4.27;2.20;;;8.50;99.90;;;;;;5045268;28;20220;-86
2023/10/27 06:55:35;;;;;;;4.30;2.10;;;8.50;99.90;;;;;;5040222;28;20371;-87
2023/10/27 06:58:03;;;;;;;5.97;2.40;;;8.50;99.90;;;;;;5058312;28;20325;-87
2023/10/27 07:00:30;;;;;;;6.60;2.77;;;8.60;99.90;;;;;;5044107;28;20234;-87
2023/10/27 07:02:57;;;;;;;4.57;2.53;;;8.60;99.90;;;;;;5041617;28;20757;-85
2023/10/27 07:05:24;;;;;;;3.50;2.30;;;8.60;99.90;;;;;;5044213;28;20914;-88
2023/10/27 07:07:53;;;;;;;2.53;2.10;;;8.60;99.90;;;;;;5061668;28;20232;-86
2023/10/27 07:10:19;;;;;;;3.67;2.23;;;8.60;99.90;;;;;;5038393;28;20240;-85
2023/10/27 07:12:47;;;;;;;3.77;2.37;;;8.60;99.90;;;;;;5042351;28;20243;-87
2023/10/27 07:15:14;;;;;;;3.77;2.20;;;8.60;99.90;;;;;;5047939;28;20227;-87
2023/10/27 07:17:40;;;;;;;4.10;2.27;;;8.60;99.90;;;;;;5042292;28;20382;-86
2023/10/27 07:20:08;;;;;;;3.10;2.10;;;8.60;99.90;;;;;;5045868;28;20223;-86
2023/10/27 07:22:35;;;;;;;4.33;2.13;;;8.60;99.90;;;;;;5048768;28;20223;-86
2023/10/27 07:25:04;;;;;;;4.60;2.00;;;8.60;99.90;;;;;;5046164;28;20234;-86
2023/10/27 07:27:31;;;;;;;4.20;2.40;;;8.70;99.90;;;;;;5038073;28;20234;-87
2023/10/27 07:29:58;;;;;;;2.73;2.17;;;8.60;99.90;;;;;;5050155;28;20226;-87
2023/10/27 07:32:27;;;;;;;3.30;1.77;;;8.70;99.90;;;;;;5043059;28;20222;-86
2023/10/27 07:34:54;;;;;;;3.67;2.10;;;8.70;99.90;;;;;;5045344;28;20223;-87
2023/10/27 07:37:23;;;;;;;2.43;1.70;;;8.70;99.90;;;;;;5040609;28;20222;-87
2023/10/27 07:39:50;;;;;;;4.47;2.00;;;8.70;99.90;;;;;;5079907;28;20704;-86
2023/10/27 07:42:18;;;;;;;3.73;2.30;;;8.70;99.90;;;;;;5071930;28;20956;-87
2023/10/27 07:44:45;;;;;;;2.40;1.80;;;8.80;99.90;;;;;;5044661;28;20266;-87
2023/10/27 07:47:11;;;;;;;2.70;2.10;;;8.80;99.90;;;;;;5048732;28;20885;-87
2023/10/27 07:49:38;;;;;;;3.23;2.10;;;8.80;99.90;;;;;;5063844;28;20252;-86
2023/10/27 07:52:05;;;;;;;2.63;1.83;;;8.80;99.90;;;;;;5046345;28;20315;-87
2023/10/27 07:54:32;;;;;;;2.70;1.70;;;8.90;99.90;;;;;;5044385;28;20227;-87
2023/10/27 07:56:59;;;;;;;2.57;1.87;;;8.90;99.90;;;;;;5062688;28;20241;-85
2023/10/27 07:59:28;;;;;;;3.33;1.73;;;8.90;99.90;;;;;;5043670;28;20276;-86
2023/10/27 08:01:57;;;;;;;2.43;1.80;;;8.90;99.90;;;;;;5077573;28;20785;-86
2023/10/27 08:04:24;;;;;;;2.60;1.87;;;8.90;99.90;;;;;;5042665;28;20326;-86
2023/10/27 08:06:51;;;;;;;3.10;1.97;;;8.90;99.90;;;;;;5046115;28;20314;-86
2023/10/27 08:09:19;;;;;;;3.10;2.20;;;8.90;99.90;;;;;;5038381;28;20765;-85
2023/10/27 08:11:49;;;;;;;2.10;1.70;;;8.90;99.90;;;;;;5040209;28;20735;-86
2023/10/27 08:14:16;;;;;;;2.47;1.67;;;9.00;99.90;;;;;;5046750;28;20280;-85
2023/10/27 08:16:47;;;;;;;4.13;1.53;;;9.00;99.90;;;;;;5042983;28;20227;-86
2023/10/27 08:19:13;;;;;;;2.03;1.70;;;9.00;99.90;;;;;;5047633;28;20572;-86
2023/10/27 08:21:41;;;;;;;2.73;2.10;;;9.00;99.90;;;;;;5042682;28;20310;-86
2023/10/27 08:24:08;;;;;;;5.03;1.87;;;9.00;99.90;;;;;;5045249;28;20828;-86
2023/10/27 08:26:35;;;;;;;2.10;1.53;;;9.10;99.90;;;;;;5040405;28;20309;-86
2023/10/27 08:29:02;;;;;;;3.20;1.77;;;9.10;99.90;;;;;;5049920;28;20217;-86
2023/10/27 08:31:29;;;;;;;3.53;2.20;;;9.10;99.90;;;;;;5057392;28;20235;-85
2023/10/27 08:33:59;;;;;;;2.80;1.90;;;9.10;99.90;;;;;;5040507;28;20230;-87
2023/10/27 08:36:27;;;;;;;2.53;1.80;;;9.10;99.90;;;;;;5047430;28;20242;-86
2023/10/27 08:38:55;;;;;;;3.17;1.70;;;9.10;99.90;;;;;;5046599;28;20716;-86
2023/10/27 08:41:22;;;;;;;2.90;1.50;;;9.10;99.90;;;;;;5051531;28;20222;-86
2023/10/27 08:43:49;;;;;;;3.60;1.73;;;9.10;99.90;;;;;;5039005;28;20238;-86
2023/10/27 08:46:16;;;;;;;2.73;1.70;;;9.10;99.90;;;;;;5061055;28;20340;-86
2023/10/27 08:48:43;;;;;;;3.90;1.70;;;9.10;99.90;;;;;;5061095;28;20261;-85
2023/10/27 08:51:13;;;;;;;2.20;1.60;;;9.10;99.90;;;;;;5042031;28;20229;-86
2023/10/27 08:53:40;;;;;;;4.67;1.90;;;9.20;99.90;;;;;;5043553;28;20425;-86
2023/10/27 08:56:12;;;;;;;4.33;1.80;;;9.10;99.90;;;;;;5043941;28;20733;-86
2023/10/27 08:58:39;;;;;;;2.83;1.67;;;9.10;99.90;;;;;;5047408;28;20230;-85
2023/10/27 09:01:06;;;;;;;3.73;1.77;;;9.20;99.90;;;;;;5047157;28;20218;-86
2023/10/27 09:03:33;;;;;;;1.90;1.50;;;9.20;99.90;;;;;;5047198;28;20258;-87
2023/10/27 09:06:00;;;;;;;2.47;1.57;;;9.20;99.90;;;;;;5042139;28;20246;-87
2023/10/27 09:08:28;;;;;;;2.40;1.53;;;9.20;99.90;;;;;;5050176;28;20688;-87
2023/10/27 09:10:55;;;;;;;2.67;1.73;;;9.30;99.90;;;;;;5055980;28;20700;-86
2023/10/27 09:13:22;;;;;;;2.50;1.70;;;9.30;99.90;;;;;;5031631;28;20220;-86
2023/10/27 09:15:50;;;;;;;3.10;1.77;;;9.30;99.90;;;;;;5063418;28;20325;-86
2023/10/27 09:18:18;;;;;;;2.50;1.77;;;9.30;99.90;;;;;;5040163;28;20222;-86
2023/10/27 09:20:49;;;;;;;2.83;1.70;;;9.30;99.90;;;;;;5067138;28;20253;-87
2023/10/27 09:23:17;;;;;;;2.43;1.80;;;9.40;99.90;;;;;;5039479;28;20552;-86
2023/10/27 09:25:46;;;;;;;3.47;2.00;;;9.40;99.90;;;;;;5045835;28;20656;-86
2023/10/27 09:28:13;;;;;;;4.33;1.80;;;9.40;99.90;;;;;;5043347;28;20230;-86
2023/10/27 09:30:41;;;;;;;3.20;1.73;;;9.50;99.90;;;;;;5043129;28;20320;-85
2023/10/27 09:33:13;;;;;;;3.40;1.80;;;9.50;99.90;;;;;;5037661;28;20724;-86
2023/10/27 09:35:40;;;;;;;2.30;1.70;;;9.60;99.90;;;;;;5038044;28;20233;-85
2023/10/27 09:38:08;;;;;;;3.23;1.70;;;9.60;99.90;;;;;;5058925;28;20644;-86
2023/10/27 09:40:35;;;;;;;2.17;1.60;;;9.60;99.90;;;;;;5044048;28;20268;-86
2023/10/27 09:43:04;;;;;;;2.80;1.70;;;9.70;99.90;;;;;;5042648;28;20218;-87
2023/10/27 09:45:34;;;;;;;2.77;1.73;;;9.70;99.90;;;;;;5059343;28;20238;-86
2023/10/27 09:48:03;;;;;;;2.40;1.90;;;9.70;99.90;;;;;;5040942;28;20231;-87
2023/10/27 09:50:32;;;;;;;3.70;2.20;;;9.80;99.90;;;;;;5043756;28;20237;-86
2023/10/27 09:53:00;;;;;;;2.07;1.60;;;9.80;99.90;;;;;;5041825;28;20326;-87
2023/10/27 09:55:28;;;;;;;3.13;1.60;;;9.80;99.90;;;;;;5046729;28;20238;-87
2023/10/27 09:57:55;;;;;;;4.07;2.00;;;9.80;99.90;;;;;;5058405;28;21053;-86
2023/10/27 10:00:27;;;;;;;3.00;2.00;;;9.80;99.90;;;;;;5041989;28;20797;-86
2023/10/27 10:02:55;;;;;;;2.73;1.87;;;9.80;99.90;;;;;;5044247;28;20728;-86
2023/10/27 10:05:23;;;;;;;2.60;1.90;;;9.80;99.90;;;;;;5055127;28;20218;-86
2023/10/27 10:07:54;;;;;;;3.40;2.00;;;9.80;99.90;;;;;;5053837;28;20229;-86
2023/10/27 10:10:24;;;;;;;3.80;2.33;;;9.80;99.90;;;;;;5047051;28;20223;-86
2023/10/27 10:13:05;;;;;;;2.83;2.13;;;9.80;99.90;;;;;;5037755;28;20227;-87
2023/10/27 10:15:35;;;;;;;4.10;2.50;;;9.70;99.90;;;;;;5045746;28;20236;-87
2023/10/27 10:18:02;;;;;;;3.43;2.27;;;9.70;99.90;;;;;;5040229;28;20717;-86
2023/10/27 10:20:57;;;;;;;3.27;2.33;;;9.70;99.90;;;;;;5064987;28;20347;-86
2023/10/27 10:23:26;;;;;;;3.90;2.30;;;9.70;99.90;;;;;;5036639;28;20265;-87
2023/10/27 10:25:54;;;;;;;3.93;2.40;;;9.70;99.90;;;;;;5042852;28;20242;-86
2023/10/27 10:28:24;;;;;;;4.33;2.23;;;9.80;99.90;;;;;;5053085;28;20219;-87
2023/10/27 10:31:27;;;;;;;3.87;2.30;;;9.70;99.90;;;;;;5048167;28;20223;-86
2023/10/27 10:34:12;;;;;;;4.77;2.47;;;9.70;99.90;;;;;;5048037;28;20276;-86
2023/10/27 10:36:41;;;;;;;4.77;2.73;;;9.70;99.90;;;;;;5045600;28;20589;-87
2023/10/27 10:39:10;;;;;;;2.67;2.27;;;9.70;99.90;;;;;;5043314;28;20227;-87
2023/10/27 10:41:59;;;;;;;2.63;2.30;;;9.70;99.90;;;;;;5047995;28;20221;-87
2023/10/27 10:44:29;;;;;;;3.43;2.33;;;9.80;99.90;;;;;;5050072;28;20321;-86
2023/10/27 10:46:59;;;;;;;3.43;2.40;;;9.80;99.90;;;;;;5045842;28;20238;-87
2023/10/27 10:49:26;;;;;;;2.67;2.40;;;9.80;99.90;;;;;;5047253;28;20238;-86
2023/10/27 10:51:53;;;;;;;4.07;2.30;;;9.80;99.90;;;;;;5039323;28;20697;-87
2023/10/27 10:54:25;;;;;;;4.33;2.60;;;9.80;99.90;;;;;;5059833;28;20219;-86
2023/10/27 10:56:59;;;;;;;3.70;2.53;;;9.80;99.90;;;;;;5043173;28;20228;-87
2023/10/27 10:59:26;;;;;;;3.57;2.20;;;9.80;99.90;;;;;;5047288;28;20225;-87
2023/10/27 11:01:57;;;;;;;3.63;2.57;;;9.80;99.90;;;;;;5044977;28;20218;-88
2023/10/27 11:04:30;;;;;;;4.03;2.50;;;9.90;99.90;;;;;;5044106;28;20242;-87
2023/10/27 11:07:02;;;;;;;3.93;2.43;;;9.90;99.90;;;;;;5061448;28;20248;-87
2023/10/27 11:09:31;;;;;;;3.37;2.47;;;9.90;99.90;;;;;;5042249;28;20319;-87
2023/10/27 11:11:58;;;;;;;3.90;2.90;;;10.00;99.90;;;;;;5058193;28;20709;-87
2023/10/27 11:14:25;;;;;;;3.97;2.43;;;10.00;99.90;;;;;;5040909;28;20301;-86
2023/10/27 11:17:04;;;;;;;4.90;2.50;;;10.00;99.90;;;;;;5038367;28;20230;-86
2023/10/27 11:19:30;;;;;;;3.73;2.80;;;10.00;99.90;;;;;;5040761;28;20323;-87
2023/10/27 11:21:57;;;;;;;4.03;2.60;;;10.10;99.90;;;;;;5042483;28;20311;-88
2023/10/27 11:24:24;;;;;;;3.30;2.63;;;10.10;99.90;;;;;;5058385;28;20267;-87
2023/10/27 11:26:51;;;;;;;3.73;2.90;;;10.20;99.90;;;;;;5043968;28;20305;-86
2023/10/27 11:29:18;;;;;;;4.30;2.80;;;10.20;99.90;;;;;;5053698;28;20219;-86
2023/10/27 11:31:47;;;;;;;3.73;2.50;;;10.30;99.90;;;;;;5042451;28;20235;-86
2023/10/27 11:34:21;;;;;;;6.40;3.93;;;10.40;99.90;;;;;;5056859;28;20616;-87
2023/10/27 11:37:00;;;;;;;2.97;2.17;;;10.40;99.90;;;;;;5055026;28;20228;-87
2023/10/27 11:39:27;;;;;;;3.93;2.17;;;10.50;99.90;;;;;;5042370;28;20232;-85
2023/10/27 11:41:58;;;;;;;2.40;1.93;;;10.50;99.90;;;;;;5045269;28;20764;-88
2023/10/27 11:44:25;;;;;;;2.53;2.33;;;10.50;99.90;;;;;;5050617;28;20326;-88
2023/10/27 11:46:56;;;;;;;3.33;2.07;;;10.60;99.90;;;;;;5047637;28;20289;-86
2023/10/27 11:49:26;;;;;;;2.37;2.13;;;10.60;99.90;;;;;;5043938;28;20707;-85
2023/10/27 11:51:55;;;;;;;2.20;2.00;;;10.60;99.90;;;;;;5043884;28;20231;-87
2023/10/27 11:54:24;;;;;;;3.53;2.17;;;10.60;99.90;;;;;;5039460;28;20565;-86
2023/10/27 11:56:51;;;;;;;4.07;2.40;;;10.70;99.90;;;;;;5045736;28;20319;-86
2023/10/27 11:59:20;;;;;;;2.40;2.20;;;10.70;99.90;;;;;;5043540;28;20302;-87
2023/10/27 12:01:47;;;;;;;3.57;2.30;;;10.70;99.90;;;;;;5042093;28;20232;-86
2023/10/27 12:04:14;;;;;;;2.87;2.30;;;10.70;99.90;;;;;;5042266;28;20210;-85
2023/10/27 12:06:42;;;;;;;2.50;2.10;;;10.70;99.90;;;;;;5041239;28;20775;-84
2023/10/27 12:09:11;;;;;;;3.50;2.30;;;10.70;99.90;;;;;;5050148;28;20244;-87
2023/10/27 12:11:41;;;;;;;2.83;2.53;;;10.70;99.90;;;;;;5042782;28;20213;-86
2023/10/27 12:14:10;;;;;;;3.70;2.50;;;10.80;99.90;;;;;;5044722;28;20228;-87
2023/10/27 12:16:37;;;;;;;2.37;2.10;;;10.90;99.90;;;;;;5048280;28;20223;-87
2023/10/27 12:19:03;;;;;;;3.30;2.47;;;10.90;99.90;;;;;;5040517;28;20248;-85
2023/10/27 12:21:30;;;;;;;4.87;2.63;;;10.90;99.90;;;;;;5055621;28;20231;-86
2023/10/27 12:23:58;;;;;;;2.07;1.87;;;10.90;99.90;;;;;;5068016;28;20263;-85
2023/10/27 12:26:25;;;;;;;2.63;2.20;;;10.90;99.90;;;;;;5040028;28;20283;-86
2023/10/27 12:28:52;;;;;;;2.90;2.20;;;10.90;99.90;;;;;;5047803;28;20291;-85
2023/10/27 12:31:19;;;;;;;4.03;2.70;;;10.90;99.90;;;;;;5046420;28;20314;-84
2023/10/27 12:33:46;;;;;;;5.03;2.90;;;10.90;99.90;;;;;;5044759;28;20227;-85
2023/10/27 12:36:14;;;;;;;4.13;3.57;;;10.90;99.90;;;;;;5057368;28;20293;-86
2023/10/27 12:38:41;;;;;;;3.30;2.80;;;10.90;99.90;;;;;;5045386;28;20261;-87
2023/10/27 12:41:10;;;;;;;6.63;3.10;;;10.90;99.90;;;;;;5041488;28;20295;-85
2023/10/27 12:43:37;;;;;;;3.70;2.80;;;10.90;99.90;;;;;;5044824;28;20255;-88
2023/10/27 12:46:04;;;;;;;3.17;2.80;;;10.90;99.90;;;;;;5059665;28;20239;-86
2023/10/27 12:48:32;;;;;;;3.50;3.00;;;10.90;99.90;;;;;;5040625;28;20232;-88
2023/10/27 12:50:59;;;;;;;4.13;3.23;;;10.80;99.90;;;;;;5042976;28;20237;-89
2023/10/27 12:53:27;;;;;;;3.53;2.77;;;10.80;99.90;;;;;;5039800;28;20240;-87
2023/10/27 12:55:54;;;;;;;3.47;2.90;;;10.70;99.90;;;;;;5044382;28;20223;-87
2023/10/27 12:58:22;;;;;;;4.20;2.90;;;10.70;99.90;;;;;;5060619;28;20218;-86
2023/10/27 13:00:51;;;;;;;3.67;3.00;;;10.60;99.90;;;;;;5042463;28;21042;-89